createdAt,value
2019-01-25T01:47:24.801Z,28.53
2019-01-25T01:49:53.048Z,32.10
2019-01-25T01:52:20.934Z,30.70
2019-01-25T01:54:48.888Z,30.80
2019-01-25T01:57:16.939Z,31.47
2019-01-25T01:59:45.043Z,33.00
2019-01-25T02:02:13.019Z,31.03
2019-01-25T02:04:41.032Z,30.83
2019-01-25T02:07:09.131Z,32.83
2019-01-25T02:09:37.080Z,33.60
2019-01-25T02:12:05.102Z,33.00
2019-01-25T02:14:33.052Z,32.70
2019-01-25T02:17:01.009Z,32.77
2019-01-25T02:19:28.927Z,33.87
2019-01-25T02:21:56.823Z,31.60
2019-01-25T02:24:24.801Z,33.57
2019-01-25T02:26:52.690Z,33.57
2019-01-25T02:29:21.412Z,31.00
2019-01-25T02:31:50.805Z,32.67
2019-01-25T02:34:18.952Z,34.90
2019-01-25T02:36:46.941Z,31.17
2019-01-25T02:39:14.870Z,33.47
2019-01-25T02:41:42.849Z,31.77
2019-01-25T02:44:10.799Z,32.73
2019-01-25T02:46:39.053Z,32.60
2019-01-25T02:49:07.274Z,31.20
2019-01-25T02:51:35.318Z,32.33
2019-01-25T02:54:03.265Z,30.60
2019-01-25T02:56:31.190Z,30.23
2019-01-25T02:58:59.459Z,31.90
2019-01-25T03:01:27.423Z,33.17
2019-01-25T03:03:55.596Z,30.87
2019-01-25T03:06:24.011Z,33.03
2019-01-25T03:08:51.967Z,31.87
2019-01-25T03:11:19.988Z,30.80
2019-01-25T03:13:47.912Z,30.40
2019-01-25T03:16:16.112Z,33.00
2019-01-25T03:18:44.027Z,32.40
2019-01-25T03:21:12.256Z,32.27
2019-01-25T03:23:40.398Z,33.67
2019-01-25T03:26:08.546Z,32.23
2019-01-25T03:28:36.626Z,32.50
2019-01-25T03:31:04.667Z,31.83
2019-01-25T03:33:32.941Z,34.80
2019-01-25T03:36:01.337Z,32.27
2019-01-25T03:38:29.422Z,32.97
2019-01-25T03:40:58.081Z,31.20
2019-01-25T03:43:26.405Z,33.20
2019-01-25T03:45:54.310Z,34.70
2019-01-25T03:48:22.633Z,31.47
2019-01-25T03:50:50.726Z,31.97
2019-01-25T03:53:19.363Z,33.70
2019-01-25T03:55:47.354Z,33.40
2019-01-25T03:58:16.199Z,36.10
2019-01-25T04:00:44.425Z,34.83
2019-01-25T04:03:12.530Z,35.07
2019-01-25T04:05:40.689Z,34.63
2019-01-25T04:08:08.773Z,33.27
2019-01-25T04:10:37.046Z,32.07
2019-01-25T04:13:05.458Z,34.93
2019-01-25T04:15:34.375Z,36.40
2019-01-25T04:18:02.666Z,35.43
2019-01-25T04:20:30.859Z,36.07
2019-01-25T04:22:58.833Z,37.27
2019-01-25T04:25:26.729Z,33.70
2019-01-25T04:27:54.644Z,34.77
2019-01-25T04:30:26.460Z,34.77
2019-01-25T04:32:54.392Z,35.30
2019-01-25T04:35:22.306Z,35.73
2019-01-25T04:37:50.177Z,33.30
2019-01-25T04:40:18.419Z,35.07
2019-01-25T04:42:46.374Z,34.53
2019-01-25T04:45:15.289Z,33.70
2019-01-25T04:47:43.316Z,33.03
2019-01-25T04:50:13.119Z,32.90
2019-01-25T04:52:41.409Z,34.50
2019-01-25T04:55:12.122Z,32.53
2019-01-25T04:57:39.987Z,34.27
2019-01-25T05:00:08.732Z,33.10
2019-01-25T05:02:36.639Z,36.67
2019-01-25T05:05:05.325Z,32.27
2019-01-25T05:07:33.328Z,33.20
2019-01-25T05:10:01.268Z,33.17
2019-01-25T05:12:29.140Z,32.67
2019-01-25T05:14:57.057Z,31.40
2019-01-25T05:17:24.967Z,33.07
2019-01-25T05:19:52.939Z,32.60
2019-01-25T05:22:21.088Z,33.10
2019-01-25T05:24:49.125Z,33.13
2019-01-25T05:27:17.051Z,33.47
2019-01-25T05:29:52.531Z,32.57
2019-01-25T05:32:20.488Z,30.23
2019-01-25T05:34:48.462Z,31.00
2019-01-25T05:37:16.365Z,32.03
2019-01-25T05:39:44.250Z,31.70
2019-01-25T05:42:12.146Z,32.00
2019-01-25T05:44:40.072Z,32.07
2019-01-25T05:47:08.884Z,31.10
2019-01-25T05:49:36.798Z,30.80
2019-01-25T05:52:05.493Z,30.23
2019-01-25T05:54:33.401Z,28.63
2019-01-25T05:57:01.549Z,29.47
2019-01-25T05:59:29.440Z,29.37
2019-01-25T06:01:57.443Z,30.20
2019-01-25T06:04:29.446Z,30.50
2019-01-25T06:06:57.598Z,29.40
2019-01-25T06:09:25.638Z,29.27
2019-01-25T06:11:53.645Z,28.80
2019-01-25T06:14:21.717Z,28.83
2019-01-25T06:16:49.946Z,30.90
2019-01-25T06:19:18.049Z,28.20
2019-01-25T06:21:46.062Z,28.40
2019-01-25T06:24:13.948Z,27.20
2019-01-25T06:26:44.319Z,28.13
2019-01-25T06:29:12.347Z,28.47
2019-01-25T06:31:40.342Z,28.80
2019-01-25T06:34:08.266Z,29.20
2019-01-25T06:36:36.155Z,28.10
2019-01-25T06:39:06.111Z,27.23
2019-01-25T06:41:34.351Z,27.87
2019-01-25T06:44:02.329Z,29.37
2019-01-25T06:46:30.374Z,28.10
2019-01-25T06:48:58.301Z,26.30
2019-01-25T06:51:26.194Z,28.07
2019-01-25T06:53:54.076Z,25.30
2019-01-25T06:56:21.966Z,26.53
2019-01-25T06:59:17.863Z,26.10
2019-01-25T07:02:10.737Z,26.97
2019-01-25T07:04:38.683Z,26.70
2019-01-25T07:07:10.545Z,24.80
2019-01-25T07:09:38.527Z,25.13
2019-01-25T07:12:06.730Z,24.27
2019-01-25T07:14:34.618Z,24.43
2019-01-25T07:17:02.507Z,20.90
2019-01-25T07:19:30.378Z,25.90
2019-01-25T07:21:58.282Z,24.37
2019-01-25T07:24:26.453Z,25.23
2019-01-25T07:26:54.461Z,25.57
2019-01-25T07:29:22.622Z,23.27
2019-01-25T07:31:50.607Z,23.90
2019-01-25T07:34:18.544Z,24.47
2019-01-25T07:36:46.601Z,21.77
2019-01-25T07:39:21.894Z,23.43
2019-01-25T07:41:49.963Z,26.63
2019-01-25T07:44:17.970Z,23.43
2019-01-25T07:46:46.035Z,23.63
2019-01-25T07:49:14.085Z,22.43
2019-01-25T07:51:42.083Z,23.30
2019-01-25T07:54:10.019Z,20.70
2019-01-25T07:56:37.885Z,22.90
2019-01-25T07:59:05.836Z,22.60
2019-01-25T08:01:33.870Z,22.43
2019-01-25T08:04:01.949Z,22.17
2019-01-25T08:06:30.024Z,21.87
2019-01-25T08:08:58.060Z,21.67
2019-01-25T08:11:26.034Z,21.27
2019-01-25T08:13:53.992Z,21.27
2019-01-25T08:16:21.888Z,21.40
2019-01-25T08:18:49.765Z,21.30
2019-01-25T08:21:17.759Z,21.60
2019-01-25T08:23:47.428Z,20.37
2019-01-25T08:26:15.660Z,21.47
2019-01-25T08:28:43.822Z,24.63
2019-01-25T08:31:11.790Z,21.70
2019-01-25T08:33:42.796Z,21.53
2019-01-25T08:36:10.760Z,20.07
2019-01-25T08:38:38.698Z,23.37
2019-01-25T08:41:07.098Z,22.20
2019-01-25T08:43:35.198Z,21.70
2019-01-25T08:46:03.196Z,22.53
2019-01-25T08:48:31.196Z,22.70
2019-01-25T08:50:59.353Z,22.87
2019-01-25T08:53:27.352Z,23.30
2019-01-25T08:55:55.268Z,20.90
2019-01-25T08:58:23.285Z,21.87
2019-01-25T09:00:51.950Z,22.30
2019-01-25T09:03:20.011Z,22.73
2019-01-25T09:05:47.898Z,24.37
2019-01-25T09:08:15.805Z,22.73
2019-01-25T09:10:43.932Z,23.93
2019-01-25T09:13:12.007Z,24.17
2019-01-25T09:15:39.998Z,24.23
2019-01-25T09:18:08.010Z,23.00
2019-01-25T09:20:36.124Z,25.00
2019-01-25T09:23:04.303Z,23.20
2019-01-25T09:25:32.731Z,26.20
2019-01-25T09:28:00.700Z,23.77
2019-01-25T09:30:28.986Z,27.73
2019-01-25T09:32:57.151Z,25.50
2019-01-25T09:35:26.142Z,24.47
2019-01-25T09:37:54.402Z,25.97
2019-01-25T09:40:23.627Z,24.10
2019-01-25T09:42:52.015Z,26.83
2019-01-25T09:45:20.080Z,25.37
2019-01-25T09:47:48.013Z,24.87
2019-01-25T09:50:16.685Z,25.57
2019-01-25T09:52:44.751Z,24.73
2019-01-25T09:55:13.944Z,27.00
2019-01-25T09:57:41.990Z,26.03
2019-01-25T10:00:13.071Z,28.30
2019-01-25T10:02:41.043Z,26.30
2019-01-25T10:05:09.070Z,26.73
2019-01-25T10:07:37.017Z,26.50
2019-01-25T10:10:05.310Z,25.53
2019-01-25T10:12:36.038Z,23.80
2019-01-25T10:15:03.300Z,26.20
2019-01-25T10:17:31.249Z,28.20
2019-01-25T10:19:59.260Z,26.83
2019-01-25T10:22:27.379Z,27.87
2019-01-25T10:24:55.357Z,28.17
2019-01-25T10:27:23.224Z,26.03
2019-01-25T10:29:51.113Z,26.20
2019-01-25T10:32:19.215Z,26.13
2019-01-25T10:34:47.161Z,26.70
2019-01-25T10:37:15.178Z,26.13
2019-01-25T10:39:43.147Z,27.37
2019-01-25T10:42:11.090Z,25.33
2019-01-25T10:44:39.088Z,25.70
2019-01-25T10:47:07.100Z,25.23
2019-01-25T10:49:35.097Z,23.60
2019-01-25T10:52:03.008Z,24.47
2019-01-25T10:54:30.949Z,24.73
2019-01-25T10:56:59.026Z,25.10
2019-01-25T10:59:27.007Z,23.63
2019-01-25T11:01:54.991Z,26.70
2019-01-25T11:04:22.978Z,24.20
2019-01-25T11:06:50.966Z,21.40
2019-01-25T11:09:18.848Z,24.67
2019-01-25T11:11:46.762Z,23.20
2019-01-25T11:14:14.689Z,25.50
2019-01-25T11:16:42.564Z,25.20
2019-01-25T11:19:10.532Z,22.77
2019-01-25T11:21:38.475Z,24.90
2019-01-25T11:24:07.823Z,23.77
2019-01-25T11:26:36.168Z,24.93
2019-01-25T11:29:04.639Z,23.77
2019-01-25T11:31:32.761Z,24.23
2019-01-25T11:34:01.823Z,23.60
2019-01-25T11:36:30.959Z,24.57
2019-01-25T11:38:58.952Z,23.27
2019-01-25T11:41:26.989Z,22.50
2019-01-25T11:43:55.000Z,25.03
2019-01-25T11:46:22.950Z,23.97
2019-01-25T11:48:50.966Z,23.90
2019-01-25T11:51:19.933Z,23.50
2019-01-25T11:53:48.063Z,24.13
2019-01-25T11:56:16.003Z,22.97
2019-01-25T11:58:43.914Z,25.67
2019-01-25T12:01:11.837Z,22.50
2019-01-25T12:03:39.875Z,23.60
2019-01-25T12:06:07.786Z,23.50
2019-01-25T12:08:35.916Z,23.63
2019-01-25T12:11:03.830Z,23.17
2019-01-25T12:13:32.538Z,25.47
2019-01-25T12:16:00.589Z,25.07
2019-01-25T12:18:28.572Z,24.40
2019-01-25T12:20:56.582Z,26.07
2019-01-25T12:23:24.753Z,25.20
2019-01-25T12:25:52.930Z,24.90
2019-01-25T12:28:20.930Z,23.57
2019-01-25T12:30:48.849Z,23.60
2019-01-25T12:33:16.820Z,25.07
2019-01-25T12:35:45.208Z,22.93
2019-01-25T12:38:13.099Z,23.53
2019-01-25T12:40:42.309Z,24.20
2019-01-25T12:43:11.338Z,22.87
2019-01-25T12:45:39.339Z,25.97
2019-01-25T12:48:07.391Z,26.20
2019-01-25T12:50:37.192Z,24.37
2019-01-25T12:53:05.591Z,24.20
2019-01-25T12:55:33.775Z,24.47
2019-01-25T12:58:01.786Z,23.40
2019-01-25T13:00:31.014Z,22.40
2019-01-25T13:02:59.143Z,24.20
2019-01-25T13:05:27.049Z,23.20
2019-01-25T13:07:54.979Z,24.50
2019-01-25T13:10:23.104Z,24.83
2019-01-25T13:12:51.100Z,25.63
2019-01-25T13:15:19.259Z,23.57
2019-01-25T13:17:47.140Z,23.27
2019-01-25T13:20:16.178Z,24.17
2019-01-25T13:22:44.120Z,25.50
2019-01-25T13:25:12.313Z,22.07
2019-01-25T13:27:40.330Z,23.70
2019-01-25T13:30:10.209Z,22.57
2019-01-25T13:32:38.451Z,24.57
2019-01-25T13:35:06.499Z,21.10
2019-01-25T13:37:34.507Z,23.23
2019-01-25T13:40:02.565Z,24.33
2019-01-25T13:42:30.420Z,25.00
2019-01-25T13:44:58.408Z,23.10
2019-01-25T13:47:26.356Z,25.90
2019-01-25T13:49:54.372Z,24.03
2019-01-25T13:52:22.293Z,24.67
2019-01-25T13:54:50.196Z,24.40
2019-01-25T13:57:18.129Z,23.13
2019-01-25T13:59:46.148Z,23.20
2019-01-25T14:02:14.374Z,24.33
2019-01-25T14:04:42.279Z,22.80
2019-01-25T14:07:10.232Z,23.50
2019-01-25T14:09:38.171Z,23.30
2019-01-25T14:12:06.144Z,22.50
2019-01-25T14:14:34.031Z,23.90
2019-01-25T14:17:02.037Z,24.10
2019-01-25T14:19:30.103Z,23.37
2019-01-25T14:21:58.073Z,23.17
2019-01-25T14:24:26.165Z,24.10
2019-01-25T14:26:54.054Z,23.83
2019-01-25T14:29:22.107Z,23.30
2019-01-25T14:31:50.015Z,23.53
2019-01-25T14:34:17.994Z,21.70
2019-01-25T14:36:45.917Z,24.20
2019-01-25T14:39:13.896Z,23.17
2019-01-25T14:41:41.757Z,23.20
2019-01-25T14:44:09.655Z,23.67
2019-01-25T14:46:37.592Z,21.40
2019-01-25T14:49:05.583Z,21.83
2019-01-25T14:51:33.502Z,21.53
2019-01-25T14:54:01.397Z,22.00
2019-01-25T14:56:29.394Z,22.47
2019-01-25T14:58:57.356Z,21.20
2019-01-25T15:01:25.252Z,21.50
2019-01-25T15:03:53.197Z,22.90
2019-01-25T15:06:21.193Z,21.90
2019-01-25T15:08:49.059Z,21.93
2019-01-25T15:11:16.951Z,21.70
2019-01-25T15:13:44.866Z,21.13
2019-01-25T15:16:15.550Z,22.80
2019-01-25T15:18:43.482Z,19.83
2019-01-25T15:21:11.453Z,22.40
2019-01-25T15:23:39.370Z,20.50
2019-01-25T15:26:07.240Z,18.10
2019-01-25T15:28:35.135Z,22.60
2019-01-25T15:31:03.228Z,20.83
2019-01-25T15:33:31.165Z,20.87
2019-01-25T15:35:59.129Z,20.20
2019-01-25T15:38:27.058Z,20.73
2019-01-25T15:40:54.959Z,21.03
2019-01-25T15:43:22.867Z,20.40
2019-01-25T15:45:50.839Z,19.80
2019-01-25T15:48:18.850Z,21.30
2019-01-25T15:50:47.135Z,18.70
2019-01-25T15:53:15.117Z,20.10
2019-01-25T15:55:43.089Z,20.40
2019-01-25T15:58:11.206Z,21.40
2019-01-25T16:00:39.148Z,20.90
2019-01-25T16:03:07.147Z,21.90
2019-01-25T16:05:35.082Z,19.97
2019-01-25T16:08:03.077Z,20.63
2019-01-25T16:10:31.013Z,21.13
2019-01-25T16:12:58.962Z,19.70
2019-01-25T16:15:31.453Z,22.23
2019-01-25T16:17:59.456Z,19.47
2019-01-25T16:20:27.414Z,21.40
2019-01-25T16:22:56.195Z,19.23
2019-01-25T16:25:25.614Z,19.50
2019-01-25T16:27:54.152Z,17.87
2019-01-25T16:30:23.499Z,18.80
2019-01-25T16:32:51.544Z,18.77
2019-01-25T16:35:19.559Z,19.87
2019-01-25T16:37:47.768Z,21.47
2019-01-25T16:40:16.683Z,18.93
2019-01-25T16:42:44.665Z,18.97
2019-01-25T16:45:14.366Z,19.07
2019-01-25T16:47:42.514Z,20.10
2019-01-25T16:50:10.995Z,19.50
2019-01-25T16:52:39.087Z,18.23
2019-01-25T16:55:07.975Z,20.03
2019-01-25T16:57:36.164Z,18.50
2019-01-25T17:00:06.146Z,20.10
2019-01-25T17:02:34.577Z,20.00
2019-01-25T17:05:03.345Z,17.63
2019-01-25T17:07:31.809Z,19.60
2019-01-25T17:10:00.095Z,18.93
2019-01-25T17:12:28.288Z,17.90
2019-01-25T17:14:56.353Z,19.47
2019-01-25T17:17:24.308Z,18.70
2019-01-25T17:19:52.524Z,19.30
2019-01-25T17:22:21.229Z,17.93
2019-01-25T17:24:49.482Z,17.10
2019-01-25T17:27:17.691Z,19.47
2019-01-25T17:29:45.907Z,17.80
2019-01-25T17:32:14.074Z,17.10
2019-01-25T17:34:43.005Z,18.70
2019-01-25T17:37:11.566Z,19.20
2019-01-25T17:39:39.962Z,17.07
2019-01-25T17:42:08.459Z,18.57
2019-01-25T17:44:41.385Z,17.90
2019-01-25T17:47:07.975Z,17.57
2019-01-25T17:49:37.833Z,18.70
2019-01-25T17:52:06.449Z,18.60
2019-01-25T17:54:35.021Z,17.80
2019-01-25T17:57:03.789Z,17.47
2019-01-25T17:59:32.398Z,18.00
2019-01-25T18:02:00.672Z,20.10
2019-01-25T18:04:29.300Z,17.20
2019-01-25T18:06:58.052Z,17.40
2019-01-25T18:09:26.389Z,17.10
2019-01-25T18:11:54.813Z,17.80
2019-01-25T18:14:22.807Z,17.07
2019-01-25T18:16:53.321Z,16.50
2019-01-25T18:19:21.371Z,17.17
2019-01-25T18:21:49.591Z,16.53
2019-01-25T18:24:17.925Z,15.70
2019-01-25T18:26:46.034Z,16.10
2019-01-25T18:29:18.989Z,15.73
2019-01-25T18:31:46.934Z,17.07
2019-01-25T18:34:14.893Z,15.40
2019-01-25T18:36:42.794Z,16.63
2019-01-25T18:39:10.821Z,15.43
2019-01-25T18:41:38.896Z,16.80
2019-01-25T18:44:07.072Z,15.87
2019-01-25T18:46:35.040Z,15.77
2019-01-25T18:49:03.186Z,17.40
2019-01-25T18:51:31.152Z,15.73
2019-01-25T18:53:59.265Z,16.47
2019-01-25T18:56:27.528Z,14.70
2019-01-25T18:58:58.571Z,14.97
2019-01-25T19:01:27.758Z,13.87
2019-01-25T19:03:56.820Z,13.40
2019-01-25T19:06:25.067Z,11.77
2019-01-25T19:08:53.547Z,13.83
2019-01-25T19:11:21.667Z,12.53
2019-01-25T19:13:50.793Z,10.70
2019-01-25T19:16:18.865Z,11.53
2019-01-25T19:18:46.992Z,12.30
2019-01-25T19:21:15.038Z,12.67
2019-01-25T19:23:43.617Z,12.00
2019-01-25T19:26:11.760Z,12.30
2019-01-25T19:28:39.729Z,11.90
2019-01-25T19:31:07.790Z,12.17
2019-01-25T19:33:35.825Z,13.43
2019-01-25T19:36:05.479Z,12.40
2019-01-25T19:38:33.936Z,13.10
2019-01-25T19:41:02.355Z,10.50
2019-01-25T19:43:31.161Z,12.83
2019-01-25T19:46:00.096Z,12.07
2019-01-25T19:48:28.396Z,11.90
2019-01-25T19:50:56.836Z,11.77
2019-01-25T19:53:25.055Z,13.23
2019-01-25T19:55:53.180Z,12.33
2019-01-25T19:58:21.798Z,12.27
2019-01-25T20:00:50.087Z,10.70
2019-01-25T20:03:18.395Z,11.87
2019-01-25T20:05:46.584Z,12.00
2019-01-25T20:08:15.256Z,11.73
2019-01-25T20:10:43.963Z,11.57
2019-01-25T20:13:12.754Z,11.97
2019-01-25T20:15:42.097Z,12.27
2019-01-25T20:18:10.280Z,11.03
2019-01-25T20:20:38.694Z,11.90
2019-01-25T20:23:07.032Z,12.30
2019-01-25T20:25:35.993Z,10.57
2019-01-25T20:28:05.053Z,12.77
2019-01-25T20:30:33.667Z,11.30
2019-01-25T20:33:03.037Z,11.40
2019-01-25T20:35:32.394Z,11.53
2019-01-25T20:38:00.412Z,12.80
2019-01-25T20:40:28.714Z,11.00
2019-01-25T20:42:57.119Z,10.77
2019-01-25T20:45:27.198Z,10.87
2019-01-25T20:47:55.571Z,11.40
2019-01-25T20:50:24.584Z,11.07
2019-01-25T20:52:52.961Z,10.83
2019-01-25T20:55:21.096Z,11.10
2019-01-25T20:57:49.130Z,11.10
2019-01-25T21:00:21.470Z,11.40
2019-01-25T21:02:49.645Z,10.30
2019-01-25T21:05:17.813Z,9.97
2019-01-25T21:07:47.243Z,10.83
2019-01-25T21:10:16.270Z,10.17
2019-01-25T21:12:44.773Z,8.90
2019-01-25T21:15:14.136Z,10.70
2019-01-25T21:17:42.438Z,8.80
2019-01-25T21:20:12.467Z,8.43
2019-01-25T21:22:43.575Z,8.67
2019-01-25T21:25:12.058Z,8.93
2019-01-25T21:27:40.536Z,9.97
2019-01-25T21:30:11.462Z,9.70
2019-01-25T21:32:39.752Z,9.00
2019-01-25T21:35:09.030Z,10.37
2019-01-25T21:37:37.327Z,8.70
2019-01-25T21:40:08.651Z,8.73
2019-01-25T21:42:36.104Z,9.47
2019-01-25T21:45:05.146Z,8.10
2019-01-25T21:47:33.464Z,8.50
2019-01-25T21:50:01.484Z,8.70
2019-01-25T21:52:29.494Z,8.47
2019-01-25T21:54:57.668Z,9.27
2019-01-25T21:57:25.698Z,8.20
2019-01-25T21:59:53.764Z,8.10
2019-01-25T22:02:21.873Z,7.33
2019-01-25T22:04:50.220Z,8.57
2019-01-25T22:07:18.242Z,8.10
2019-01-25T22:09:46.246Z,8.13
2019-01-25T22:12:14.267Z,7.60
2019-01-25T22:14:42.562Z,8.33
2019-01-25T22:17:11.555Z,9.60
2019-01-25T22:19:39.552Z,8.53
2019-01-25T22:22:07.553Z,8.87
2019-01-25T22:24:35.637Z,8.73
2019-01-25T22:27:03.977Z,9.47
2019-01-25T22:29:32.263Z,8.27
2019-01-25T22:32:00.455Z,9.37
2019-01-25T22:34:28.716Z,9.87
2019-01-25T22:36:56.834Z,9.20
2019-01-25T22:39:24.830Z,9.27
2019-01-25T22:41:55.974Z,9.27
2019-01-25T22:44:24.205Z,10.10
2019-01-25T22:46:52.600Z,9.83
2019-01-25T22:49:20.568Z,9.90
2019-01-25T22:51:50.576Z,10.10
2019-01-25T22:54:18.650Z,9.10
2019-01-25T22:56:46.612Z,9.17
2019-01-25T22:59:14.653Z,9.40
2019-01-25T23:01:42.650Z,9.13
2019-01-25T23:04:29.727Z,9.20
2019-01-25T23:07:10.687Z,9.70
2019-01-25T23:09:40.075Z,9.93
2019-01-25T23:12:08.405Z,10.10
2019-01-25T23:14:36.371Z,8.77
2019-01-25T23:17:04.663Z,10.07
2019-01-25T23:19:32.795Z,9.30
2019-01-25T23:22:01.760Z,8.70
2019-01-25T23:24:29.701Z,9.57
2019-01-25T23:26:57.727Z,9.30
2019-01-25T23:29:26.028Z,9.97
2019-01-25T23:31:53.996Z,10.40
2019-01-25T23:34:21.954Z,9.43
2019-01-25T23:36:50.042Z,9.50
2019-01-25T23:39:18.112Z,9.03
2019-01-25T23:41:46.343Z,9.47
2019-01-25T23:44:14.590Z,9.07
2019-01-25T23:46:42.572Z,8.77
2019-01-25T23:49:10.565Z,8.70
2019-01-25T23:51:38.658Z,9.87
2019-01-25T23:54:06.760Z,8.43
2019-01-25T23:56:34.721Z,9.00
2019-01-25T23:59:02.965Z,9.93
